Channing, Michigan
Current Conditions -  °F | °C
As of 5:54 PM on Sunday 21 Dec 2014 (Local Time) from KIMT Reporting Station
Light Snow Light Snow  
Wind Chill: 24°   Ceiling: 500
Heat Index: 33°   Visibility: 2.5mi
Dew Point: 31°   Wind: 13mph
Humidity: 92%   Direction: 150°SSE
Pressure: 29.93"   Gusts: NA
Location:  46.14°N, 88.09°W
Report Text: KIMT 212354Z AUTO 15011KT 2 1/2SM -SN BR OVC005 01/M01 A2993 RMK AO2 SLP152 P0000 60000 T00061006 10006 21017 56007
Loading
Personal Weather Stations






























Interactive Weather Map New forecast layout! Learn more

10-Day Weather Forecast

Advertisements
Track Severe Weather on mobile